createdAt,value
2023-04-20T00:02:15.556Z,3.83
2023-04-20T00:04:42.615Z,4.18
2023-04-20T00:07:09.332Z,4.35
2023-04-20T00:09:35.916Z,3.80
2023-04-20T00:12:02.570Z,3.63
2023-04-20T00:14:29.267Z,4.45
2023-04-20T00:16:56.074Z,3.85
2023-04-20T00:19:23.242Z,3.80
2023-04-20T00:21:50.000Z,4.40
2023-04-20T00:24:16.604Z,4.30
2023-04-20T00:26:43.397Z,4.03
2023-04-20T00:29:10.095Z,5.30
2023-04-20T00:31:37.075Z,4.47
2023-04-20T00:34:03.598Z,5.00
2023-04-20T00:36:30.190Z,5.43
2023-04-20T00:38:58.913Z,4.95
2023-04-20T00:41:28.588Z,4.68
2023-04-20T00:43:55.353Z,5.10
2023-04-20T00:46:22.064Z,4.82
2023-04-20T00:48:51.786Z,5.25
2023-04-20T00:51:19.931Z,5.72
2023-04-20T00:53:46.659Z,5.07
2023-04-20T00:56:14.358Z,5.45
2023-04-20T00:58:42.271Z,5.18
2023-04-20T01:01:10.600Z,4.80
2023-04-20T01:03:41.578Z,4.53
2023-04-20T01:06:08.836Z,5.05
2023-04-20T01:08:35.570Z,4.57
2023-04-20T01:11:03.903Z,4.10
2023-04-20T01:13:30.638Z,4.47
2023-04-20T01:16:00.336Z,4.25
2023-04-20T01:18:27.677Z,4.90
2023-04-20T01:20:54.250Z,3.90
2023-04-20T01:23:20.935Z,4.43
2023-04-20T01:25:47.520Z,3.72
2023-04-20T01:28:14.596Z,3.95
2023-04-20T01:30:42.184Z,3.83
2023-04-20T01:33:08.807Z,3.65
2023-04-20T01:35:35.549Z,3.65
2023-04-20T01:38:02.139Z,4.20
2023-04-20T01:40:30.595Z,3.88
2023-04-20T01:42:59.837Z,3.67
2023-04-20T01:45:26.515Z,3.55
2023-04-20T01:47:53.125Z,3.50
2023-04-20T01:50:19.941Z,4.35
2023-04-20T01:52:46.678Z,4.25
2023-04-20T01:55:19.572Z,4.20
2023-04-20T01:57:47.219Z,5.18
2023-04-20T02:00:14.295Z,4.40
2023-04-20T02:02:40.931Z,4.95
2023-04-20T02:05:08.130Z,4.53
2023-04-20T02:07:34.669Z,4.93
2023-04-20T02:10:01.979Z,4.15
2023-04-20T02:12:29.135Z,4.63
2023-04-20T02:14:55.785Z,4.13
2023-04-20T02:17:22.410Z,6.03
2023-04-20T02:19:49.026Z,4.40
2023-04-20T02:22:16.077Z,4.32
2023-04-20T02:24:43.834Z,4.35
2023-04-20T02:27:10.882Z,3.92
2023-04-20T02:29:39.716Z,4.25
2023-04-20T02:32:07.809Z,4.20
2023-04-20T02:34:34.400Z,3.90
2023-04-20T02:37:01.090Z,3.72
2023-04-20T02:39:27.651Z,4.55
2023-04-20T02:41:54.529Z,4.10
2023-04-20T02:44:21.298Z,3.67
2023-04-20T02:46:49.144Z,4.07
2023-04-20T02:49:17.102Z,4.10
2023-04-20T02:51:44.815Z,3.72
2023-04-20T02:54:11.911Z,3.50
2023-04-20T02:56:39.373Z,3.80
2023-04-20T02:59:09.401Z,3.55
2023-04-20T03:01:42.261Z,3.53
2023-04-20T03:04:19.424Z,3.80
2023-04-20T03:06:54.233Z,3.88
2023-04-20T03:09:27.046Z,3.83
2023-04-20T03:12:14.396Z,4.05
2023-04-20T03:14:55.795Z,3.97
2023-04-20T03:17:31.292Z,3.80
2023-04-20T03:19:58.644Z,3.50
2023-04-20T03:22:25.924Z,3.90
2023-04-20T03:27:42.381Z,3.42
2023-04-20T03:30:13.004Z,4.90
2023-04-20T03:32:42.195Z,3.83
2023-04-20T03:35:11.654Z,4.13
2023-04-20T03:37:39.797Z,4.25
2023-04-20T03:40:25.590Z,4.05
2023-04-20T03:42:53.379Z,4.40
2023-04-20T03:45:21.657Z,3.67
2023-04-20T03:47:49.437Z,4.15
2023-04-20T03:50:16.254Z,4.07
2023-04-20T03:52:42.975Z,4.13
2023-04-20T03:55:10.701Z,4.30
2023-04-20T03:57:41.413Z,4.25
2023-04-20T04:00:10.715Z,4.25
2023-04-20T04:02:46.889Z,4.13
2023-04-20T04:05:18.572Z,3.53
2023-04-20T04:07:45.390Z,4.20
2023-04-20T04:10:13.179Z,3.97
2023-04-20T04:12:39.986Z,3.95
2023-04-20T04:15:07.869Z,4.28
2023-04-20T04:17:40.040Z,4.32
2023-04-20T04:20:11.354Z,4.30
2023-04-20T04:25:27.452Z,4.47
2023-04-20T04:27:54.853Z,4.53
2023-04-20T04:30:22.183Z,3.85
2023-04-20T04:32:48.994Z,4.40
2023-04-20T04:35:18.036Z,4.20
2023-04-20T04:37:46.130Z,4.40
2023-04-20T04:40:12.888Z,4.22
2023-04-20T04:42:40.751Z,4.32
2023-04-20T04:45:10.299Z,4.93
2023-04-20T04:47:42.107Z,4.57
2023-04-20T04:50:10.497Z,4.15
2023-04-20T04:52:37.230Z,4.60
2023-04-20T04:55:08.112Z,4.13
2023-04-20T04:57:35.011Z,3.95
2023-04-20T05:00:09.445Z,4.80
2023-04-20T05:02:36.382Z,4.78
2023-04-20T05:05:07.542Z,4.95
2023-04-20T05:07:36.283Z,4.88
2023-04-20T05:10:03.053Z,4.78
2023-04-20T05:12:30.224Z,5.13
2023-04-20T05:14:56.793Z,5.25
2023-04-20T05:17:23.450Z,4.80
2023-04-20T05:19:50.265Z,5.65
2023-04-20T05:22:17.124Z,5.10
2023-04-20T05:24:43.789Z,4.95
2023-04-20T05:27:11.347Z,5.60
2023-04-20T05:29:40.789Z,5.93
2023-04-20T05:32:08.300Z,6.50
2023-04-20T05:34:35.298Z,5.63
2023-04-20T05:37:05.281Z,6.45
2023-04-20T05:39:31.813Z,6.35
2023-04-20T05:41:58.439Z,5.90
2023-04-20T05:44:25.009Z,5.40
2023-04-20T05:46:54.614Z,5.13
2023-04-20T05:49:21.524Z,4.90
2023-04-20T05:51:48.253Z,4.65
2023-04-20T05:54:14.971Z,5.78
2023-04-20T05:56:41.565Z,5.85
2023-04-20T05:59:08.665Z,5.80
2023-04-20T06:01:38.093Z,5.57
2023-04-20T06:04:05.827Z,5.20
2023-04-20T06:06:32.781Z,5.57
2023-04-20T06:08:59.440Z,6.18
2023-04-20T06:11:26.081Z,5.80
2023-04-20T06:13:52.624Z,6.00
2023-04-20T06:16:19.234Z,6.70
2023-04-20T06:18:45.900Z,5.85
2023-04-20T06:21:12.508Z,6.32
2023-04-20T06:23:39.223Z,5.85
2023-04-20T06:26:08.656Z,7.30
2023-04-20T06:28:36.115Z,4.63
2023-04-20T06:31:03.838Z,6.15
2023-04-20T06:33:30.924Z,6.30
2023-04-20T06:35:58.152Z,5.78
2023-04-20T06:38:25.480Z,6.13
2023-04-20T06:40:52.175Z,5.40
2023-04-20T06:43:19.063Z,6.55
2023-04-20T06:45:45.816Z,6.32
2023-04-20T06:48:30.183Z,6.70
2023-04-20T06:53:44.354Z,6.80
2023-04-20T06:56:12.181Z,6.60
2023-04-20T06:58:38.812Z,7.20
2023-04-20T07:01:05.534Z,7.18
2023-04-20T07:03:33.913Z,7.32
2023-04-20T07:06:01.042Z,5.32
2023-04-20T07:08:28.330Z,6.75
2023-04-20T07:10:54.924Z,6.80
2023-04-20T07:13:21.515Z,6.18
2023-04-20T07:15:48.281Z,6.95
2023-04-20T07:18:14.861Z,6.65
2023-04-20T07:20:41.505Z,7.45
2023-04-20T07:23:08.137Z,6.57
2023-04-20T07:25:34.728Z,6.30
2023-04-20T07:28:01.355Z,7.20
2023-04-20T07:30:28.099Z,6.95
2023-04-20T07:32:57.470Z,6.25
2023-04-20T07:35:24.469Z,6.45
2023-04-20T07:37:51.091Z,6.85
2023-04-20T07:40:17.822Z,7.70
2023-04-20T07:42:44.756Z,8.45
2023-04-20T07:45:13.024Z,7.32
2023-04-20T07:47:39.903Z,8.30
2023-04-20T07:50:07.668Z,8.45
2023-04-20T07:52:34.498Z,8.23
2023-04-20T07:55:01.840Z,8.57
2023-04-20T07:57:29.298Z,8.52
2023-04-20T07:59:55.946Z,9.40
2023-04-20T08:02:22.689Z,8.55
2023-04-20T08:04:50.160Z,9.52
2023-04-20T08:07:17.778Z,8.13
2023-04-20T08:09:44.571Z,8.27
2023-04-20T08:12:11.828Z,8.85
2023-04-20T08:14:38.707Z,8.15
2023-04-20T08:17:05.469Z,7.75
2023-04-20T08:19:32.171Z,8.63
2023-04-20T08:22:00.103Z,8.20
2023-04-20T08:24:27.299Z,8.43
2023-04-20T08:26:53.938Z,8.90
2023-04-20T08:29:20.902Z,8.77
2023-04-20T08:31:49.169Z,9.48
2023-04-20T08:34:17.603Z,9.23
2023-04-20T08:36:44.713Z,9.00
2023-04-20T08:39:19.593Z,9.35
2023-04-20T08:41:47.881Z,8.98
2023-04-20T08:44:14.787Z,8.95
2023-04-20T08:46:45.606Z,8.35
2023-04-20T08:49:12.930Z,8.52
2023-04-20T08:51:40.048Z,7.65
2023-04-20T08:54:06.894Z,8.00
2023-04-20T08:56:40.676Z,8.95
2023-04-20T08:59:12.928Z,8.20
2023-04-20T09:01:43.156Z,8.73
2023-04-20T09:04:28.884Z,7.97
2023-04-20T09:06:56.447Z,8.82
2023-04-20T09:09:25.769Z,8.68
2023-04-20T09:12:09.107Z,8.45
2023-04-20T09:14:46.083Z,8.00
2023-04-20T09:17:31.130Z,7.55
2023-04-20T09:19:57.790Z,7.60
2023-04-20T09:22:35.571Z,7.78
2023-04-20T09:25:23.325Z,7.63
2023-04-20T09:27:57.824Z,7.85
2023-04-20T09:30:24.843Z,7.18
2023-04-20T09:33:04.293Z,8.30
2023-04-20T09:35:31.557Z,7.70
2023-04-20T09:37:58.139Z,7.97
2023-04-20T09:40:30.793Z,7.90
2023-04-20T09:42:59.512Z,7.72
2023-04-20T09:45:26.537Z,8.07
2023-04-20T09:47:53.865Z,8.15
2023-04-20T09:50:28.994Z,7.85
2023-04-20T09:52:56.799Z,9.45
2023-04-20T09:55:24.597Z,10.02
2023-04-20T09:57:52.228Z,10.73
2023-04-20T10:00:19.262Z,9.60
2023-04-20T10:02:48.745Z,9.15
2023-04-20T10:05:16.826Z,9.55
2023-04-20T10:07:44.073Z,8.90
2023-04-20T10:10:15.626Z,8.73
2023-04-20T10:12:56.187Z,8.57
2023-04-20T10:15:24.890Z,7.22
2023-04-20T10:17:51.660Z,7.68
2023-04-20T10:20:19.323Z,6.60
2023-04-20T10:22:46.305Z,7.13
2023-04-20T10:25:18.346Z,6.82
2023-04-20T10:27:56.030Z,6.80
2023-04-20T10:30:24.526Z,6.00
2023-04-20T10:33:11.174Z,6.30
2023-04-20T10:35:51.185Z,5.60
2023-04-20T10:38:35.759Z,5.85
2023-04-20T10:41:12.825Z,5.40
2023-04-20T10:43:43.186Z,5.80
2023-04-20T10:46:21.663Z,5.93
2023-04-20T10:48:51.370Z,5.22
2023-04-20T10:51:19.040Z,4.03
2023-04-20T10:53:49.103Z,4.45
2023-04-20T10:56:15.884Z,4.07
2023-04-20T10:58:45.592Z,4.38
2023-04-20T11:01:12.151Z,4.75
2023-04-20T11:03:39.000Z,5.15
2023-04-20T11:06:06.579Z,4.53
2023-04-20T11:08:40.245Z,5.38
2023-04-20T11:11:18.277Z,5.75
2023-04-20T11:13:44.889Z,4.88
2023-04-20T11:16:16.376Z,5.13
2023-04-20T11:18:55.714Z,4.95
2023-04-20T11:21:22.725Z,5.30
2023-04-20T11:23:50.756Z,4.53
2023-04-20T11:26:18.121Z,5.03
2023-04-20T11:29:00.956Z,4.25
2023-04-20T11:31:28.941Z,3.58
2023-04-20T11:33:55.608Z,3.50
2023-04-20T11:36:23.281Z,4.38
2023-04-20T11:38:50.338Z,4.03
2023-04-20T11:41:17.546Z,2.88
2023-04-20T11:44:16.215Z,3.42
2023-04-20T11:46:55.064Z,3.47
2023-04-20T11:49:22.047Z,2.70
2023-04-20T11:51:48.617Z,3.22
2023-04-20T11:54:16.082Z,4.43
2023-04-20T11:56:42.770Z,4.55
2023-04-20T11:59:10.728Z,4.30
2023-04-20T12:01:37.782Z,4.72
2023-04-20T12:04:04.888Z,3.85
2023-04-20T12:06:34.395Z,3.25
2023-04-20T12:09:01.460Z,4.18
2023-04-20T12:11:28.217Z,2.92
2023-04-20T12:13:54.814Z,3.15
2023-04-20T12:16:21.626Z,3.00
2023-04-20T12:18:48.480Z,2.97
2023-04-20T12:21:15.518Z,3.85
2023-04-20T12:23:43.827Z,4.05
2023-04-20T12:26:10.671Z,3.25
2023-04-20T12:28:37.431Z,3.55
2023-04-20T12:31:04.223Z,3.40
2023-04-20T12:33:31.256Z,3.55
2023-04-20T12:35:57.803Z,3.45
2023-04-20T12:38:24.465Z,3.55
2023-04-20T12:40:51.227Z,3.80
2023-04-20T12:43:17.826Z,3.80
2023-04-20T12:45:44.489Z,3.88
2023-04-20T12:48:11.129Z,3.45
2023-04-20T12:50:37.986Z,3.08
2023-04-20T12:53:06.604Z,3.00
2023-04-20T12:55:33.229Z,2.95
2023-04-20T12:57:59.850Z,3.38
2023-04-20T13:00:26.703Z,3.10
2023-04-20T13:02:56.701Z,3.13
2023-04-20T13:05:23.558Z,3.35
2023-04-20T13:07:50.086Z,3.22
2023-04-20T13:10:17.365Z,2.80
2023-04-20T13:12:43.996Z,3.00
2023-04-20T13:15:11.123Z,3.30
2023-04-20T13:17:37.790Z,3.03
2023-04-20T13:20:05.021Z,2.92
2023-04-20T13:22:31.821Z,3.30
2023-04-20T13:24:58.554Z,3.25
2023-04-20T13:27:25.256Z,3.30
2023-04-20T13:29:52.124Z,3.05
2023-04-20T13:32:19.487Z,3.22
2023-04-20T13:34:49.986Z,3.90
2023-04-20T13:37:16.786Z,3.35
2023-04-20T13:39:43.536Z,3.78
2023-04-20T13:42:10.224Z,3.60
2023-04-20T13:44:37.032Z,3.97
2023-04-20T13:47:03.819Z,3.53
2023-04-20T13:49:31.592Z,3.85
2023-04-20T13:51:58.514Z,3.70
2023-04-20T13:54:28.433Z,3.83
2023-04-20T13:56:55.208Z,4.00
2023-04-20T13:59:21.882Z,4.40
2023-04-20T14:01:48.478Z,4.30
2023-04-20T14:04:16.826Z,4.03
2023-04-20T14:06:43.728Z,3.70
2023-04-20T14:09:10.361Z,3.65
2023-04-20T14:11:36.935Z,4.10
2023-04-20T14:14:03.588Z,3.72
2023-04-20T14:16:51.062Z,4.13
2023-04-20T14:19:17.802Z,3.90
2023-04-20T14:21:46.612Z,3.83
2023-04-20T14:24:13.777Z,4.43
2023-04-20T14:26:41.007Z,3.70
2023-04-20T14:29:07.716Z,4.40
2023-04-20T14:31:34.978Z,4.20
2023-04-20T14:34:01.928Z,4.15
2023-04-20T14:36:28.694Z,3.95
2023-04-20T14:38:55.623Z,4.50
2023-04-20T14:41:22.706Z,4.35
2023-04-20T14:43:49.348Z,4.13
2023-04-20T14:46:16.096Z,4.13
2023-04-20T14:48:46.064Z,4.10
2023-04-20T14:51:13.380Z,4.13
2023-04-20T14:53:39.952Z,4.15
2023-04-20T14:56:08.111Z,4.00
2023-04-20T14:58:35.995Z,3.92
2023-04-20T15:01:03.038Z,4.53
2023-04-20T15:03:29.928Z,4.47
2023-04-20T15:06:00.856Z,4.72
2023-04-20T15:08:27.731Z,4.40
2023-04-20T15:10:56.800Z,3.90
2023-04-20T15:13:24.443Z,4.07
2023-04-20T15:15:54.241Z,3.35
2023-04-20T15:18:21.753Z,3.88
2023-04-20T15:20:52.273Z,4.50
2023-04-20T15:23:19.600Z,5.00
2023-04-20T15:25:46.708Z,5.57
2023-04-20T15:28:13.246Z,6.13
2023-04-20T15:30:40.344Z,6.07
2023-04-20T15:33:07.564Z,6.30
2023-04-20T15:35:35.014Z,5.93
2023-04-20T15:38:10.241Z,6.30
2023-04-20T15:40:38.584Z,5.78
2023-04-20T15:43:05.312Z,6.75
2023-04-20T15:45:32.041Z,6.20
2023-04-20T15:48:00.986Z,5.82
2023-04-20T15:50:27.771Z,5.18
2023-04-20T15:52:54.537Z,5.72
2023-04-20T15:55:21.218Z,5.10
2023-04-20T15:57:47.853Z,5.97
2023-04-20T16:00:15.196Z,6.57
2023-04-20T16:02:41.829Z,7.15
2023-04-20T16:05:09.319Z,7.80
2023-04-20T16:07:35.958Z,6.97
2023-04-20T16:10:03.092Z,6.40
2023-04-20T16:12:29.815Z,6.93
2023-04-20T16:14:57.418Z,6.97
2023-04-20T16:17:24.345Z,6.80
2023-04-20T16:19:51.097Z,6.82
2023-04-20T16:22:17.878Z,7.00
2023-04-20T16:24:44.509Z,7.43
2023-04-20T16:27:11.121Z,7.43
2023-04-20T16:29:37.974Z,6.03
2023-04-20T16:32:05.895Z,5.88
2023-04-20T16:34:32.399Z,5.68
2023-04-20T16:36:59.483Z,5.53
2023-04-20T16:39:26.618Z,5.13
2023-04-20T16:41:53.240Z,6.25
2023-04-20T16:44:20.389Z,5.47
2023-04-20T16:46:51.351Z,5.50
2023-04-20T16:49:18.127Z,5.43
2023-04-20T16:51:44.774Z,5.78
2023-04-20T16:54:12.696Z,5.25
2023-04-20T16:56:40.146Z,5.55
2023-04-20T16:59:06.939Z,5.30
2023-04-20T17:01:33.496Z,6.10
2023-04-20T17:04:00.714Z,5.70
2023-04-20T17:06:27.792Z,5.65
2023-04-20T17:08:57.407Z,5.45
2023-04-20T17:11:24.131Z,5.88
2023-04-20T17:13:50.786Z,4.45
2023-04-20T17:16:17.459Z,5.63
2023-04-20T17:18:44.064Z,5.90
2023-04-20T17:21:10.619Z,5.10
2023-04-20T17:23:37.238Z,5.63
2023-04-20T17:26:07.388Z,5.70
2023-04-20T17:28:33.866Z,5.38
2023-04-20T17:31:00.490Z,6.13
2023-04-20T17:33:27.110Z,6.07
2023-04-20T17:35:55.125Z,6.05
2023-04-20T17:38:21.808Z,6.10
2023-04-20T17:40:48.368Z,4.75
2023-04-20T17:43:14.959Z,5.22
2023-04-20T17:45:41.562Z,4.95
2023-04-20T17:48:08.894Z,5.40
2023-04-20T17:50:35.791Z,5.30
2023-04-20T17:53:06.880Z,5.28
2023-04-20T17:58:01.034Z,5.60
2023-04-20T18:00:27.636Z,4.72
2023-04-20T18:02:54.580Z,5.00
2023-04-20T18:05:21.434Z,5.63
2023-04-20T18:07:48.120Z,5.88
2023-04-20T18:10:15.638Z,5.40
2023-04-20T18:12:43.007Z,5.55
2023-04-20T18:15:10.066Z,6.07
2023-04-20T18:17:36.819Z,5.22
2023-04-20T18:20:07.967Z,5.75
2023-04-20T18:22:37.746Z,6.05
2023-04-20T18:25:04.733Z,5.68
2023-04-20T18:27:31.367Z,5.00
2023-04-20T18:30:03.983Z,5.60
2023-04-20T18:32:31.331Z,5.55
2023-04-20T18:34:59.160Z,5.47
2023-04-20T18:37:26.270Z,5.90
2023-04-20T18:39:52.807Z,5.82
2023-04-20T18:42:19.380Z,6.18
2023-04-20T18:44:46.352Z,5.88
2023-04-20T18:47:13.084Z,6.28
2023-04-20T18:49:39.740Z,6.18
2023-04-20T18:52:06.355Z,6.05
2023-04-20T18:54:33.014Z,6.47
2023-04-20T18:56:59.589Z,6.63
2023-04-20T18:59:26.214Z,5.00
2023-04-20T19:01:53.047Z,5.25
2023-04-20T19:04:21.010Z,6.50
2023-04-20T19:06:47.874Z,6.68
2023-04-20T19:09:14.761Z,7.18
2023-04-20T19:11:41.308Z,6.80
2023-04-20T19:14:07.920Z,6.90
2023-04-20T19:16:35.881Z,7.38
2023-04-20T19:19:03.865Z,6.75
2023-04-20T19:21:32.393Z,6.50
2023-04-20T19:23:59.497Z,6.97
2023-04-20T19:26:26.211Z,7.32
2023-04-20T19:28:53.417Z,6.90
2023-04-20T19:31:20.215Z,7.47
2023-04-20T19:33:48.068Z,7.07
2023-04-20T19:36:14.648Z,7.13
2023-04-20T19:38:41.492Z,7.80
2023-04-20T19:41:08.182Z,7.78
2023-04-20T19:43:36.467Z,7.35
2023-04-20T19:46:03.928Z,7.43
2023-04-20T19:48:37.366Z,7.32
2023-04-20T19:51:05.709Z,7.68
2023-04-20T19:53:32.747Z,8.05
2023-04-20T19:55:59.297Z,8.02
2023-04-20T19:58:25.857Z,8.55
2023-04-20T20:00:52.529Z,8.20
2023-04-20T20:03:51.937Z,8.50
2023-04-20T20:06:19.574Z,7.90
2023-04-20T20:08:46.256Z,8.45
2023-04-20T20:11:12.830Z,9.20
2023-04-20T20:13:40.120Z,9.48
2023-04-20T20:16:06.785Z,10.13
2023-04-20T20:18:33.416Z,9.68
2023-04-20T20:21:00.226Z,9.93
2023-04-20T20:23:27.204Z,10.50
2023-04-20T20:25:54.120Z,10.98
2023-04-20T20:28:20.717Z,11.07
2023-04-20T20:30:47.609Z,11.18
2023-04-20T20:33:15.071Z,12.18
2023-04-20T20:35:43.621Z,12.38
2023-04-20T20:38:10.986Z,12.63
2023-04-20T20:40:39.866Z,13.68
2023-04-20T20:43:06.704Z,13.20
2023-04-20T20:45:33.480Z,13.80
2023-04-20T20:48:00.858Z,12.88
2023-04-20T20:50:27.891Z,13.27
2023-04-20T20:52:54.813Z,14.30
2023-04-20T20:55:22.427Z,13.15
2023-04-20T20:57:49.193Z,14.50
2023-04-20T21:00:16.060Z,16.33
2023-04-20T21:02:43.028Z,16.08
2023-04-20T21:05:09.848Z,17.38
2023-04-20T21:07:36.600Z,18.10
2023-04-20T21:10:03.710Z,19.02
2023-04-20T21:12:30.709Z,19.13
2023-04-20T21:14:57.314Z,20.88
2023-04-20T21:17:24.382Z,20.55
2023-04-20T21:19:51.244Z,21.98
2023-04-20T21:22:17.906Z,22.60
2023-04-20T21:24:45.573Z,24.00
2023-04-20T21:27:12.959Z,24.90
2023-04-20T21:29:39.598Z,26.67
2023-04-20T21:32:06.210Z,27.50
2023-04-20T21:34:33.646Z,27.80
2023-04-20T21:37:04.142Z,27.45
2023-04-20T21:39:31.556Z,28.80
2023-04-20T21:41:59.519Z,30.65
2023-04-20T21:44:26.356Z,31.30
2023-04-20T21:46:52.911Z,30.58
2023-04-20T21:49:19.812Z,30.65
2023-04-20T21:51:46.667Z,32.13
2023-04-20T21:54:13.333Z,31.85
2023-04-20T21:56:39.964Z,33.60
2023-04-20T21:59:06.530Z,34.40
2023-04-20T22:01:33.113Z,34.90
2023-04-20T22:03:59.951Z,35.95
2023-04-20T22:06:26.959Z,35.42
2023-04-20T22:08:53.528Z,37.45
2023-04-20T22:11:21.417Z,37.03
2023-04-20T22:13:48.342Z,35.33
2023-04-20T22:16:15.343Z,38.08
2023-04-20T22:18:42.208Z,37.47
2023-04-20T22:21:08.939Z,38.70
2023-04-20T22:23:35.756Z,39.72
2023-04-20T22:26:03.239Z,39.47
2023-04-20T22:28:29.871Z,39.90
2023-04-20T22:30:57.064Z,38.65
2023-04-20T22:33:23.659Z,39.88
2023-04-20T22:35:51.265Z,39.95
2023-04-20T22:38:26.763Z,40.00
2023-04-20T22:40:53.960Z,39.97
2023-04-20T22:43:21.543Z,40.83
2023-04-20T22:45:48.730Z,43.58
2023-04-20T22:48:16.061Z,41.90
2023-04-20T22:50:42.802Z,42.53
2023-04-20T22:53:09.498Z,41.13
2023-04-20T22:55:36.043Z,42.70
2023-04-20T22:58:02.597Z,41.35
2023-04-20T23:00:29.341Z,44.83
2023-04-20T23:02:56.099Z,45.03
2023-04-20T23:05:22.943Z,43.20
2023-04-20T23:07:54.780Z,45.30
2023-04-20T23:10:28.844Z,46.17
2023-04-20T23:12:56.020Z,47.13
2023-04-20T23:15:23.658Z,47.58
2023-04-20T23:17:50.934Z,44.05
2023-04-20T23:20:18.242Z,44.92
2023-04-20T23:22:45.008Z,47.15
2023-04-20T23:25:11.669Z,45.45
2023-04-20T23:27:38.302Z,45.72
2023-04-20T23:30:06.536Z,45.45
2023-04-20T23:32:33.155Z,46.55
2023-04-20T23:34:59.810Z,47.15
2023-04-20T23:37:26.586Z,45.25
2023-04-20T23:39:53.424Z,44.53
2023-04-20T23:42:20.179Z,47.60
2023-04-20T23:44:46.837Z,48.78
2023-04-20T23:47:15.437Z,45.22
2023-04-20T23:49:42.051Z,46.38
2023-04-20T23:52:08.621Z,46.78
2023-04-20T23:54:35.263Z,49.00
2023-04-20T23:57:02.722Z,45.38
2023-04-20T23:59:29.359Z,46.63
